Airport View

Enter AWOS ICAO identifier for current METAR.

ex. KFNL

PAYA 261153Z AUTO 29004KT 7SM OVC002 12/12 A3007 RMK AO2 SLP182 T01220117 10144 20094 53002 TSNO

26 Jun 2019 12:48

Frequency: 135.75

Phone: 907-784-3564

Other Area AWOS: CWHT

TAF PAYA 261132Z 2612/2712 27003KT P6SM SKC TEMPO 2612/2616 BKN003 OVC015 FM261800 28006KT P6SM SKC FM270400 VRB02KT P6SM BCFG FEW002 SCT010 AMD LTD TO CLD VIS AND WIND